sensor_id;sensor_type;location;lat;lon;timestamp;P1;durP1;ratioP1;P2;durP2;ratioP2
69588;SDS011;56792;50.644;17.984;2023-04-25T00:00:04;6.70;;;3.60;;
69588;SDS011;56792;50.644;17.984;2023-04-25T00:02:39;6.30;;;3.30;;
69588;SDS011;56792;50.644;17.984;2023-04-25T00:05:09;5.00;;;3.00;;
69588;SDS011;56792;50.644;17.984;2023-04-25T00:07:37;4.50;;;3.10;;
69588;SDS011;56792;50.644;17.984;2023-04-25T00:10:08;3.70;;;2.20;;
69588;SDS011;56792;50.644;17.984;2023-04-25T00:12:38;4.80;;;2.60;;
69588;SDS011;56792;50.644;17.984;2023-04-25T00:15:08;3.70;;;2.50;;
69588;SDS011;56792;50.644;17.984;2023-04-25T00:17:38;4.10;;;2.40;;
69588;SDS011;56792;50.644;17.984;2023-04-25T00:20:08;3.70;;;2.10;;
69588;SDS011;56792;50.644;17.984;2023-04-25T00:22:38;4.00;;;2.50;;
69588;SDS011;56792;50.644;17.984;2023-04-25T00:25:07;4.00;;;2.20;;
69588;SDS011;56792;50.644;17.984;2023-04-25T00:27:35;3.80;;;2.40;;
69588;SDS011;56792;50.644;17.984;2023-04-25T00:30:08;4.80;;;2.60;;
69588;SDS011;56792;50.644;17.984;2023-04-25T00:32:37;3.20;;;1.90;;
69588;SDS011;56792;50.644;17.984;2023-04-25T00:35:06;3.40;;;1.80;;
69588;SDS011;56792;50.644;17.984;2023-04-25T00:37:35;4.60;;;1.90;;
69588;SDS011;56792;50.644;17.984;2023-04-25T00:40:07;3.70;;;2.00;;
69588;SDS011;56792;50.644;17.984;2023-04-25T00:42:37;4.00;;;2.20;;
69588;SDS011;56792;50.644;17.984;2023-04-25T00:45:08;3.30;;;2.00;;
69588;SDS011;56792;50.644;17.984;2023-04-25T00:47:40;3.20;;;2.00;;
69588;SDS011;56792;50.644;17.984;2023-04-25T00:50:09;5.20;;;2.70;;
69588;SDS011;56792;50.644;17.984;2023-04-25T00:52:41;5.30;;;2.60;;
69588;SDS011;56792;50.644;17.984;2023-04-25T00:55:11;4.30;;;2.10;;
69588;SDS011;56792;50.644;17.984;2023-04-25T00:57:40;3.60;;;1.70;;
69588;SDS011;56792;50.644;17.984;2023-04-25T01:00:11;3.40;;;1.80;;
69588;SDS011;56792;50.644;17.984;2023-04-25T01:02:41;3.00;;;1.70;;
69588;SDS011;56792;50.644;17.984;2023-04-25T01:05:11;3.50;;;2.10;;
69588;SDS011;56792;50.644;17.984;2023-04-25T01:07:41;3.90;;;2.10;;
69588;SDS011;56792;50.644;17.984;2023-04-25T01:10:09;3.60;;;1.90;;
69588;SDS011;56792;50.644;17.984;2023-04-25T01:12:38;3.50;;;1.80;;
69588;SDS011;56792;50.644;17.984;2023-04-25T01:15:07;3.30;;;1.90;;
69588;SDS011;56792;50.644;17.984;2023-04-25T01:17:37;2.90;;;1.70;;
69588;SDS011;56792;50.644;17.984;2023-04-25T01:20:08;3.70;;;1.80;;
69588;SDS011;56792;50.644;17.984;2023-04-25T01:22:38;3.10;;;1.60;;
69588;SDS011;56792;50.644;17.984;2023-04-25T01:25:07;3.20;;;1.80;;
69588;SDS011;56792;50.644;17.984;2023-04-25T01:27:37;3.20;;;2.00;;
69588;SDS011;56792;50.644;17.984;2023-04-25T01:30:08;3.10;;;1.70;;
69588;SDS011;56792;50.644;17.984;2023-04-25T01:32:38;5.30;;;1.80;;
69588;SDS011;56792;50.644;17.984;2023-04-25T01:35:09;4.00;;;1.70;;
69588;SDS011;56792;50.644;17.984;2023-04-25T01:37:39;3.10;;;1.40;;
69588;SDS011;56792;50.644;17.984;2023-04-25T01:40:09;2.90;;;1.40;;
69588;SDS011;56792;50.644;17.984;2023-04-25T01:42:42;3.50;;;1.60;;
69588;SDS011;56792;50.644;17.984;2023-04-25T01:45:11;3.50;;;1.50;;
69588;SDS011;56792;50.644;17.984;2023-04-25T01:47:40;4.60;;;2.00;;
69588;SDS011;56792;50.644;17.984;2023-04-25T01:50:11;5.80;;;2.50;;
69588;SDS011;56792;50.644;17.984;2023-04-25T01:52:39;8.70;;;2.60;;
69588;SDS011;56792;50.644;17.984;2023-04-25T01:55:10;7.60;;;2.50;;
69588;SDS011;56792;50.644;17.984;2023-04-25T01:57:42;5.90;;;1.90;;
69588;SDS011;56792;50.644;17.984;2023-04-25T02:00:13;3.40;;;1.80;;
69588;SDS011;56792;50.644;17.984;2023-04-25T02:02:42;3.50;;;1.50;;
69588;SDS011;56792;50.644;17.984;2023-04-25T02:05:34;3.00;;;1.30;;
69588;SDS011;56792;50.644;17.984;2023-04-25T02:08:06;3.50;;;1.60;;
69588;SDS011;56792;50.644;17.984;2023-04-25T02:10:36;2.90;;;1.20;;
69588;SDS011;56792;50.644;17.984;2023-04-25T02:13:15;4.10;;;1.50;;
69588;SDS011;56792;50.644;17.984;2023-04-25T02:16:03;3.40;;;1.40;;
69588;SDS011;56792;50.644;17.984;2023-04-25T02:18:32;3.30;;;1.80;;
69588;SDS011;56792;50.644;17.984;2023-04-25T02:21:00;3.50;;;1.60;;
69588;SDS011;56792;50.644;17.984;2023-04-25T02:23:29;3.70;;;1.90;;
69588;SDS011;56792;50.644;17.984;2023-04-25T02:26:00;3.60;;;1.90;;
69588;SDS011;56792;50.644;17.984;2023-04-25T02:28:29;3.70;;;1.90;;
69588;SDS011;56792;50.644;17.984;2023-04-25T02:30:57;4.50;;;1.70;;
69588;SDS011;56792;50.644;17.984;2023-04-25T02:33:25;3.50;;;1.90;;
69588;SDS011;56792;50.644;17.984;2023-04-25T02:35:53;4.40;;;2.20;;
69588;SDS011;56792;50.644;17.984;2023-04-25T02:38:22;3.50;;;1.90;;
69588;SDS011;56792;50.644;17.984;2023-04-25T02:40:50;4.20;;;1.90;;
69588;SDS011;56792;50.644;17.984;2023-04-25T02:43:18;4.20;;;2.10;;
69588;SDS011;56792;50.644;17.984;2023-04-25T02:45:48;4.00;;;1.90;;
69588;SDS011;56792;50.644;17.984;2023-04-25T02:48:16;4.00;;;2.00;;
69588;SDS011;56792;50.644;17.984;2023-04-25T02:50:45;3.70;;;2.20;;
69588;SDS011;56792;50.644;17.984;2023-04-25T02:53:13;4.80;;;2.10;;
69588;SDS011;56792;50.644;17.984;2023-04-25T02:55:46;5.50;;;2.10;;
69588;SDS011;56792;50.644;17.984;2023-04-25T02:58:14;4.10;;;2.30;;
69588;SDS011;56792;50.644;17.984;2023-04-25T03:00:48;4.70;;;2.90;;
69588;SDS011;56792;50.644;17.984;2023-04-25T03:03:17;5.60;;;2.20;;
69588;SDS011;56792;50.644;17.984;2023-04-25T03:05:48;4.30;;;2.10;;
69588;SDS011;56792;50.644;17.984;2023-04-25T03:08:18;4.60;;;2.30;;
69588;SDS011;56792;50.644;17.984;2023-04-25T03:10:46;5.10;;;2.40;;
69588;SDS011;56792;50.644;17.984;2023-04-25T03:13:17;5.10;;;2.60;;
69588;SDS011;56792;50.644;17.984;2023-04-25T03:15:45;5.30;;;2.60;;
69588;SDS011;56792;50.644;17.984;2023-04-25T03:18:13;5.00;;;2.90;;
69588;SDS011;56792;50.644;17.984;2023-04-25T03:20:42;4.70;;;2.60;;
69588;SDS011;56792;50.644;17.984;2023-04-25T03:23:10;5.40;;;2.80;;
69588;SDS011;56792;50.644;17.984;2023-04-25T03:25:40;6.10;;;3.00;;
69588;SDS011;56792;50.644;17.984;2023-04-25T03:28:08;6.40;;;3.00;;
69588;SDS011;56792;50.644;17.984;2023-04-25T03:30:36;7.70;;;3.00;;
69588;SDS011;56792;50.644;17.984;2023-04-25T03:33:04;7.40;;;3.10;;
69588;SDS011;56792;50.644;17.984;2023-04-25T03:35:33;6.60;;;3.60;;
69588;SDS011;56792;50.644;17.984;2023-04-25T03:38:01;7.30;;;3.40;;
69588;SDS011;56792;50.644;17.984;2023-04-25T03:40:32;6.50;;;3.80;;
69588;SDS011;56792;50.644;17.984;2023-04-25T03:43:10;8.60;;;3.30;;
69588;SDS011;56792;50.644;17.984;2023-04-25T03:45:40;7.30;;;4.00;;
69588;SDS011;56792;50.644;17.984;2023-04-25T03:48:08;7.90;;;3.80;;
69588;SDS011;56792;50.644;17.984;2023-04-25T03:50:36;8.20;;;3.60;;
69588;SDS011;56792;50.644;17.984;2023-04-25T03:53:05;6.20;;;3.40;;
69588;SDS011;56792;50.644;17.984;2023-04-25T03:55:47;7.90;;;3.70;;
69588;SDS011;56792;50.644;17.984;2023-04-25T03:58:15;7.20;;;4.20;;
69588;SDS011;56792;50.644;17.984;2023-04-25T04:00:44;7.60;;;3.90;;
69588;SDS011;56792;50.644;17.984;2023-04-25T04:03:12;7.00;;;3.80;;
69588;SDS011;56792;50.644;17.984;2023-04-25T04:05:40;6.40;;;3.40;;
69588;SDS011;56792;50.644;17.984;2023-04-25T04:08:09;7.00;;;4.20;;
69588;SDS011;56792;50.644;17.984;2023-04-25T04:10:39;6.90;;;3.80;;
69588;SDS011;56792;50.644;17.984;2023-04-25T04:13:08;6.70;;;3.90;;
69588;SDS011;56792;50.644;17.984;2023-04-25T04:15:36;7.40;;;4.00;;
69588;SDS011;56792;50.644;17.984;2023-04-25T04:18:04;8.40;;;4.30;;
69588;SDS011;56792;50.644;17.984;2023-04-25T04:20:33;7.90;;;4.40;;
69588;SDS011;56792;50.644;17.984;2023-04-25T04:23:01;7.20;;;4.10;;
69588;SDS011;56792;50.644;17.984;2023-04-25T04:25:30;9.20;;;3.70;;
69588;SDS011;56792;50.644;17.984;2023-04-25T04:28:20;7.80;;;4.30;;
69588;SDS011;56792;50.644;17.984;2023-04-25T04:30:56;7.60;;;4.20;;
69588;SDS011;56792;50.644;17.984;2023-04-25T04:33:25;7.10;;;4.10;;
69588;SDS011;56792;50.644;17.984;2023-04-25T04:35:59;8.20;;;4.00;;
69588;SDS011;56792;50.644;17.984;2023-04-25T04:38:29;5.80;;;3.80;;
69588;SDS011;56792;50.644;17.984;2023-04-25T04:41:00;6.00;;;3.60;;
69588;SDS011;56792;50.644;17.984;2023-04-25T04:43:52;9.40;;;4.20;;
69588;SDS011;56792;50.644;17.984;2023-04-25T04:46:39;6.80;;;4.00;;
69588;SDS011;56792;50.644;17.984;2023-04-25T04:49:21;6.40;;;3.60;;
69588;SDS011;56792;50.644;17.984;2023-04-25T04:52:18;6.30;;;3.70;;
69588;SDS011;56792;50.644;17.984;2023-04-25T04:55:07;6.00;;;3.60;;
69588;SDS011;56792;50.644;17.984;2023-04-25T04:57:54;7.60;;;3.80;;
69588;SDS011;56792;50.644;17.984;2023-04-25T05:00:32;7.40;;;3.70;;
69588;SDS011;56792;50.644;17.984;2023-04-25T05:03:30;7.00;;;3.80;;
69588;SDS011;56792;50.644;17.984;2023-04-25T05:06:07;7.30;;;4.40;;
69588;SDS011;56792;50.644;17.984;2023-04-25T05:09:03;6.70;;;4.30;;
69588;SDS011;56792;50.644;17.984;2023-04-25T05:11:46;6.60;;;3.70;;
69588;SDS011;56792;50.644;17.984;2023-04-25T05:14:33;7.10;;;4.00;;
69588;SDS011;56792;50.644;17.984;2023-04-25T05:17:24;7.20;;;3.80;;
69588;SDS011;56792;50.644;17.984;2023-04-25T05:20:31;6.10;;;3.80;;
69588;SDS011;56792;50.644;17.984;2023-04-25T05:23:14;5.90;;;3.50;;
69588;SDS011;56792;50.644;17.984;2023-04-25T05:25:43;7.80;;;3.80;;
69588;SDS011;56792;50.644;17.984;2023-04-25T05:28:19;6.40;;;3.90;;
69588;SDS011;56792;50.644;17.984;2023-04-25T05:31:13;6.80;;;4.10;;
69588;SDS011;56792;50.644;17.984;2023-04-25T05:33:48;7.50;;;3.60;;
69588;SDS011;56792;50.644;17.984;2023-04-25T05:36:18;6.10;;;3.40;;
69588;SDS011;56792;50.644;17.984;2023-04-25T05:38:47;5.30;;;3.10;;
69588;SDS011;56792;50.644;17.984;2023-04-25T05:41:21;8.30;;;3.80;;
69588;SDS011;56792;50.644;17.984;2023-04-25T05:44:09;6.60;;;3.60;;
69588;SDS011;56792;50.644;17.984;2023-04-25T05:46:43;9.60;;;3.90;;
69588;SDS011;56792;50.644;17.984;2023-04-25T05:49:32;6.20;;;5.30;;
69588;SDS011;56792;50.644;17.984;2023-04-25T05:52:19;8.50;;;3.80;;
69588;SDS011;56792;50.644;17.984;2023-04-25T05:54:51;8.90;;;4.70;;
69588;SDS011;56792;50.644;17.984;2023-04-25T05:57:21;8.90;;;4.30;;
69588;SDS011;56792;50.644;17.984;2023-04-25T05:59:51;7.80;;;4.30;;
69588;SDS011;56792;50.644;17.984;2023-04-25T06:02:23;9.00;;;4.20;;
69588;SDS011;56792;50.644;17.984;2023-04-25T06:04:51;8.30;;;4.40;;
69588;SDS011;56792;50.644;17.984;2023-04-25T06:07:20;9.60;;;4.40;;
69588;SDS011;56792;50.644;17.984;2023-04-25T06:09:48;7.60;;;4.40;;
69588;SDS011;56792;50.644;17.984;2023-04-25T06:12:16;8.20;;;4.50;;
69588;SDS011;56792;50.644;17.984;2023-04-25T06:14:46;5.80;;;4.00;;
69588;SDS011;56792;50.644;17.984;2023-04-25T06:17:15;6.60;;;3.90;;
69588;SDS011;56792;50.644;17.984;2023-04-25T06:19:43;5.60;;;3.90;;
69588;SDS011;56792;50.644;17.984;2023-04-25T06:22:12;7.60;;;4.00;;
69588;SDS011;56792;50.644;17.984;2023-04-25T06:24:41;6.50;;;3.80;;
69588;SDS011;56792;50.644;17.984;2023-04-25T06:27:09;5.50;;;3.50;;
69588;SDS011;56792;50.644;17.984;2023-04-25T06:29:37;7.00;;;3.80;;
69588;SDS011;56792;50.644;17.984;2023-04-25T06:32:06;6.40;;;3.60;;
69588;SDS011;56792;50.644;17.984;2023-04-25T06:34:35;6.20;;;3.70;;
69588;SDS011;56792;50.644;17.984;2023-04-25T06:37:03;5.90;;;3.80;;
69588;SDS011;56792;50.644;17.984;2023-04-25T06:39:31;6.00;;;3.50;;
69588;SDS011;56792;50.644;17.984;2023-04-25T06:41:59;7.10;;;3.60;;
69588;SDS011;56792;50.644;17.984;2023-04-25T06:44:50;6.50;;;3.60;;
69588;SDS011;56792;50.644;17.984;2023-04-25T06:47:19;8.10;;;3.60;;
69588;SDS011;56792;50.644;17.984;2023-04-25T06:49:48;7.50;;;4.20;;
69588;SDS011;56792;50.644;17.984;2023-04-25T06:52:17;5.50;;;3.70;;
69588;SDS011;56792;50.644;17.984;2023-04-25T06:54:46;5.90;;;4.00;;
69588;SDS011;56792;50.644;17.984;2023-04-25T06:57:30;5.80;;;4.30;;
69588;SDS011;56792;50.644;17.984;2023-04-25T07:00:10;7.00;;;4.10;;
69588;SDS011;56792;50.644;17.984;2023-04-25T07:02:39;7.40;;;5.80;;
69588;SDS011;56792;50.644;17.984;2023-04-25T07:05:10;8.40;;;4.10;;
69588;SDS011;56792;50.644;17.984;2023-04-25T07:07:38;7.70;;;5.70;;
69588;SDS011;56792;50.644;17.984;2023-04-25T07:10:08;5.60;;;4.00;;
69588;SDS011;56792;50.644;17.984;2023-04-25T07:12:37;5.80;;;4.00;;
69588;SDS011;56792;50.644;17.984;2023-04-25T07:15:07;6.50;;;4.60;;
69588;SDS011;56792;50.644;17.984;2023-04-25T07:17:37;8.60;;;4.30;;
69588;SDS011;56792;50.644;17.984;2023-04-25T07:20:08;8.60;;;4.40;;
69588;SDS011;56792;50.644;17.984;2023-04-25T07:22:37;8.30;;;4.60;;
69588;SDS011;56792;50.644;17.984;2023-04-25T07:25:07;7.20;;;4.30;;
69588;SDS011;56792;50.644;17.984;2023-04-25T07:27:37;6.80;;;4.00;;
69588;SDS011;56792;50.644;17.984;2023-04-25T07:30:13;6.90;;;4.30;;
69588;SDS011;56792;50.644;17.984;2023-04-25T07:32:41;8.90;;;5.40;;
69588;SDS011;56792;50.644;17.984;2023-04-25T07:35:10;9.40;;;5.20;;
69588;SDS011;56792;50.644;17.984;2023-04-25T07:37:38;8.10;;;5.20;;
69588;SDS011;56792;50.644;17.984;2023-04-25T07:40:11;6.80;;;4.30;;
69588;SDS011;56792;50.644;17.984;2023-04-25T07:42:45;8.00;;;4.50;;
69588;SDS011;56792;50.644;17.984;2023-04-25T07:45:17;8.10;;;4.40;;
69588;SDS011;56792;50.644;17.984;2023-04-25T07:47:45;6.80;;;4.30;;
69588;SDS011;56792;50.644;17.984;2023-04-25T07:50:13;6.10;;;3.90;;
69588;SDS011;56792;50.644;17.984;2023-04-25T07:52:42;6.00;;;3.60;;
69588;SDS011;56792;50.644;17.984;2023-04-25T07:55:24;7.30;;;4.00;;
69588;SDS011;56792;50.644;17.984;2023-04-25T07:58:13;6.30;;;3.80;;
69588;SDS011;56792;50.644;17.984;2023-04-25T08:00:42;5.00;;;3.60;;
69588;SDS011;56792;50.644;17.984;2023-04-25T08:03:28;6.10;;;3.70;;
69588;SDS011;56792;50.644;17.984;2023-04-25T08:05:56;5.90;;;3.30;;
69588;SDS011;56792;50.644;17.984;2023-04-25T08:08:25;4.40;;;2.90;;
69588;SDS011;56792;50.644;17.984;2023-04-25T08:10:53;5.60;;;3.20;;
69588;SDS011;56792;50.644;17.984;2023-04-25T08:13:22;6.60;;;3.80;;
69588;SDS011;56792;50.644;17.984;2023-04-25T08:15:50;6.30;;;3.40;;
69588;SDS011;56792;50.644;17.984;2023-04-25T08:18:19;6.70;;;3.00;;
69588;SDS011;56792;50.644;17.984;2023-04-25T08:20:48;5.50;;;3.60;;
69588;SDS011;56792;50.644;17.984;2023-04-25T08:23:16;7.80;;;3.50;;
69588;SDS011;56792;50.644;17.984;2023-04-25T08:25:53;4.80;;;3.20;;
69588;SDS011;56792;50.644;17.984;2023-04-25T08:28:24;5.30;;;3.60;;
69588;SDS011;56792;50.644;17.984;2023-04-25T08:30:53;6.30;;;4.00;;
69588;SDS011;56792;50.644;17.984;2023-04-25T08:33:21;7.10;;;3.40;;
69588;SDS011;56792;50.644;17.984;2023-04-25T08:36:04;6.00;;;3.60;;
69588;SDS011;56792;50.644;17.984;2023-04-25T08:38:33;6.30;;;3.20;;
69588;SDS011;56792;50.644;17.984;2023-04-25T08:41:03;4.60;;;3.20;;
69588;SDS011;56792;50.644;17.984;2023-04-25T08:43:33;5.60;;;3.00;;
69588;SDS011;56792;50.644;17.984;2023-04-25T08:46:02;5.70;;;3.70;;
69588;SDS011;56792;50.644;17.984;2023-04-25T08:48:45;6.80;;;3.60;;
69588;SDS011;56792;50.644;17.984;2023-04-25T08:51:19;6.70;;;3.80;;
69588;SDS011;56792;50.644;17.984;2023-04-25T08:53:51;6.50;;;3.50;;
69588;SDS011;56792;50.644;17.984;2023-04-25T08:56:20;6.40;;;4.10;;
69588;SDS011;56792;50.644;17.984;2023-04-25T08:58:50;6.00;;;3.30;;
69588;SDS011;56792;50.644;17.984;2023-04-25T09:01:18;7.40;;;3.80;;
69588;SDS011;56792;50.644;17.984;2023-04-25T09:03:50;6.90;;;3.80;;
69588;SDS011;56792;50.644;17.984;2023-04-25T09:06:19;6.50;;;3.80;;
69588;SDS011;56792;50.644;17.984;2023-04-25T09:08:50;5.00;;;3.50;;
69588;SDS011;56792;50.644;17.984;2023-04-25T09:11:19;6.90;;;3.50;;
69588;SDS011;56792;50.644;17.984;2023-04-25T09:13:47;5.80;;;3.30;;
69588;SDS011;56792;50.644;17.984;2023-04-25T09:16:23;6.00;;;3.60;;
69588;SDS011;56792;50.644;17.984;2023-04-25T09:19:21;7.50;;;3.20;;
69588;SDS011;56792;50.644;17.984;2023-04-25T09:21:51;6.10;;;3.30;;
69588;SDS011;56792;50.644;17.984;2023-04-25T09:24:31;6.40;;;3.50;;
69588;SDS011;56792;50.644;17.984;2023-04-25T09:27:07;5.90;;;3.20;;
69588;SDS011;56792;50.644;17.984;2023-04-25T09:29:37;5.70;;;3.30;;
69588;SDS011;56792;50.644;17.984;2023-04-25T09:32:21;5.90;;;3.20;;
69588;SDS011;56792;50.644;17.984;2023-04-25T09:34:53;6.20;;;3.50;;
69588;SDS011;56792;50.644;17.984;2023-04-25T09:37:24;8.90;;;4.10;;
69588;SDS011;56792;50.644;17.984;2023-04-25T09:40:07;8.00;;;4.00;;
69588;SDS011;56792;50.644;17.984;2023-04-25T09:42:49;9.20;;;4.30;;
69588;SDS011;56792;50.644;17.984;2023-04-25T09:45:18;7.50;;;4.10;;
69588;SDS011;56792;50.644;17.984;2023-04-25T09:47:47;5.80;;;3.70;;
69588;SDS011;56792;50.644;17.984;2023-04-25T09:50:18;5.50;;;3.40;;
69588;SDS011;56792;50.644;17.984;2023-04-25T09:53:03;6.70;;;4.30;;
69588;SDS011;56792;50.644;17.984;2023-04-25T09:55:42;5.80;;;3.70;;
69588;SDS011;56792;50.644;17.984;2023-04-25T09:58:13;6.80;;;4.00;;
69588;SDS011;56792;50.644;17.984;2023-04-25T10:00:43;6.30;;;3.70;;
69588;SDS011;56792;50.644;17.984;2023-04-25T10:03:20;6.60;;;4.20;;
69588;SDS011;56792;50.644;17.984;2023-04-25T10:06:14;6.60;;;4.20;;
69588;SDS011;56792;50.644;17.984;2023-04-25T10:08:50;8.70;;;4.00;;
69588;SDS011;56792;50.644;17.984;2023-04-25T10:11:22;9.00;;;4.40;;
69588;SDS011;56792;50.644;17.984;2023-04-25T10:13:53;10.30;;;4.60;;
69588;SDS011;56792;50.644;17.984;2023-04-25T10:16:22;7.00;;;4.20;;
69588;SDS011;56792;50.644;17.984;2023-04-25T10:18:52;6.80;;;3.80;;
69588;SDS011;56792;50.644;17.984;2023-04-25T10:21:22;6.10;;;3.60;;
69588;SDS011;56792;50.644;17.984;2023-04-25T10:23:51;7.10;;;4.50;;
69588;SDS011;56792;50.644;17.984;2023-04-25T10:26:21;6.20;;;3.90;;
69588;SDS011;56792;50.644;17.984;2023-04-25T10:28:57;10.70;;;4.40;;
69588;SDS011;56792;50.644;17.984;2023-04-25T10:31:26;6.20;;;3.40;;
69588;SDS011;56792;50.644;17.984;2023-04-25T10:33:56;6.20;;;3.80;;
69588;SDS011;56792;50.644;17.984;2023-04-25T10:36:26;6.30;;;4.40;;
69588;SDS011;56792;50.644;17.984;2023-04-25T10:39:04;6.60;;;3.70;;
69588;SDS011;56792;50.644;17.984;2023-04-25T10:41:46;5.70;;;3.30;;
69588;SDS011;56792;50.644;17.984;2023-04-25T10:44:19;6.00;;;3.60;;
69588;SDS011;56792;50.644;17.984;2023-04-25T10:46:47;5.70;;;3.40;;
69588;SDS011;56792;50.644;17.984;2023-04-25T10:49:30;6.90;;;3.70;;
69588;SDS011;56792;50.644;17.984;2023-04-25T10:52:25;6.80;;;3.30;;
69588;SDS011;56792;50.644;17.984;2023-04-25T10:54:57;7.10;;;3.60;;
69588;SDS011;56792;50.644;17.984;2023-04-25T10:57:36;6.10;;;3.50;;
69588;SDS011;56792;50.644;17.984;2023-04-25T11:00:12;6.40;;;4.00;;
69588;SDS011;56792;50.644;17.984;2023-04-25T11:02:43;6.40;;;4.10;;
69588;SDS011;56792;50.644;17.984;2023-04-25T11:05:29;6.80;;;4.20;;
69588;SDS011;56792;50.644;17.984;2023-04-25T11:07:59;6.50;;;4.40;;
69588;SDS011;56792;50.644;17.984;2023-04-25T11:10:28;6.40;;;4.70;;
69588;SDS011;56792;50.644;17.984;2023-04-25T11:12:57;6.60;;;4.70;;
69588;SDS011;56792;50.644;17.984;2023-04-25T11:15:27;5.70;;;4.50;;
69588;SDS011;56792;50.644;17.984;2023-04-25T11:17:55;6.20;;;4.00;;
69588;SDS011;56792;50.644;17.984;2023-04-25T11:20:25;9.70;;;4.10;;
69588;SDS011;56792;50.644;17.984;2023-04-25T11:22:58;6.30;;;4.10;;
69588;SDS011;56792;50.644;17.984;2023-04-25T11:25:27;5.60;;;4.40;;
69588;SDS011;56792;50.644;17.984;2023-04-25T11:27:58;5.60;;;4.50;;
69588;SDS011;56792;50.644;17.984;2023-04-25T11:30:27;5.50;;;4.30;;
69588;SDS011;56792;50.644;17.984;2023-04-25T11:32:57;5.80;;;4.00;;
69588;SDS011;56792;50.644;17.984;2023-04-25T11:35:25;6.30;;;4.30;;
69588;SDS011;56792;50.644;17.984;2023-04-25T11:37:54;8.20;;;4.30;;
69588;SDS011;56792;50.644;17.984;2023-04-25T11:40:22;5.80;;;3.90;;
69588;SDS011;56792;50.644;17.984;2023-04-25T11:42:50;5.00;;;2.80;;
69588;SDS011;56792;50.644;17.984;2023-04-25T11:45:18;5.10;;;4.00;;
69588;SDS011;56792;50.644;17.984;2023-04-25T11:47:47;5.10;;;4.10;;
69588;SDS011;56792;50.644;17.984;2023-04-25T11:50:17;6.30;;;4.10;;
69588;SDS011;56792;50.644;17.984;2023-04-25T11:52:46;5.80;;;4.00;;
69588;SDS011;56792;50.644;17.984;2023-04-25T11:55:16;5.90;;;4.20;;
69588;SDS011;56792;50.644;17.984;2023-04-25T11:57:47;6.20;;;4.00;;
69588;SDS011;56792;50.644;17.984;2023-04-25T12:00:18;6.30;;;4.30;;
69588;SDS011;56792;50.644;17.984;2023-04-25T12:02:52;7.60;;;5.10;;
69588;SDS011;56792;50.644;17.984;2023-04-25T12:05:23;6.20;;;4.30;;
69588;SDS011;56792;50.644;17.984;2023-04-25T12:07:52;7.50;;;4.50;;
69588;SDS011;56792;50.644;17.984;2023-04-25T12:10:21;5.10;;;3.80;;
69588;SDS011;56792;50.644;17.984;2023-04-25T12:12:51;7.70;;;3.50;;
69588;SDS011;56792;50.644;17.984;2023-04-25T12:15:25;5.70;;;3.50;;
69588;SDS011;56792;50.644;17.984;2023-04-25T12:17:53;5.30;;;3.00;;
69588;SDS011;56792;50.644;17.984;2023-04-25T12:20:24;5.80;;;3.80;;
69588;SDS011;56792;50.644;17.984;2023-04-25T12:22:53;6.90;;;3.50;;
69588;SDS011;56792;50.644;17.984;2023-04-25T12:25:38;5.10;;;3.20;;
69588;SDS011;56792;50.644;17.984;2023-04-25T12:28:13;5.10;;;3.30;;
69588;SDS011;56792;50.644;17.984;2023-04-25T12:30:55;6.00;;;3.70;;
69588;SDS011;56792;50.644;17.984;2023-04-25T12:33:26;5.40;;;3.00;;
69588;SDS011;56792;50.644;17.984;2023-04-25T12:35:55;6.20;;;3.20;;
69588;SDS011;56792;50.644;17.984;2023-04-25T12:38:25;4.50;;;3.50;;
69588;SDS011;56792;50.644;17.984;2023-04-25T12:40:55;5.90;;;4.30;;
69588;SDS011;56792;50.644;17.984;2023-04-25T12:43:24;6.80;;;4.20;;
69588;SDS011;56792;50.644;17.984;2023-04-25T12:45:54;6.30;;;4.00;;
69588;SDS011;56792;50.644;17.984;2023-04-25T12:48:23;5.60;;;3.70;;
69588;SDS011;56792;50.644;17.984;2023-04-25T12:50:52;5.20;;;3.90;;
69588;SDS011;56792;50.644;17.984;2023-04-25T12:53:21;6.50;;;3.40;;
69588;SDS011;56792;50.644;17.984;2023-04-25T12:55:51;5.40;;;4.50;;
69588;SDS011;56792;50.644;17.984;2023-04-25T12:58:19;7.50;;;3.30;;
69588;SDS011;56792;50.644;17.984;2023-04-25T13:00:47;5.00;;;3.80;;
69588;SDS011;56792;50.644;17.984;2023-04-25T13:03:16;7.10;;;3.70;;
69588;SDS011;56792;50.644;17.984;2023-04-25T13:05:44;6.20;;;3.80;;
69588;SDS011;56792;50.644;17.984;2023-04-25T13:08:12;4.70;;;3.50;;
69588;SDS011;56792;50.644;17.984;2023-04-25T13:10:41;5.10;;;3.50;;
69588;SDS011;56792;50.644;17.984;2023-04-25T13:13:09;8.30;;;3.20;;
69588;SDS011;56792;50.644;17.984;2023-04-25T13:15:37;4.40;;;3.20;;
69588;SDS011;56792;50.644;17.984;2023-04-25T13:18:05;5.50;;;3.30;;
69588;SDS011;56792;50.644;17.984;2023-04-25T13:20:34;4.80;;;3.70;;
69588;SDS011;56792;50.644;17.984;2023-04-25T13:23:02;4.10;;;3.20;;
69588;SDS011;56792;50.644;17.984;2023-04-25T13:25:30;5.30;;;2.90;;
69588;SDS011;56792;50.644;17.984;2023-04-25T13:27:59;4.70;;;2.90;;
69588;SDS011;56792;50.644;17.984;2023-04-25T13:30:27;3.70;;;1.80;;
69588;SDS011;56792;50.644;17.984;2023-04-25T13:32:55;3.50;;;1.90;;
69588;SDS011;56792;50.644;17.984;2023-04-25T13:35:24;3.90;;;1.90;;
69588;SDS011;56792;50.644;17.984;2023-04-25T13:37:52;4.90;;;1.90;;
69588;SDS011;56792;50.644;17.984;2023-04-25T13:40:21;4.90;;;2.10;;
69588;SDS011;56792;50.644;17.984;2023-04-25T13:42:49;5.70;;;2.50;;
69588;SDS011;56792;50.644;17.984;2023-04-25T13:45:18;4.90;;;2.20;;
69588;SDS011;56792;50.644;17.984;2023-04-25T13:47:47;4.40;;;2.00;;
69588;SDS011;56792;50.644;17.984;2023-04-25T13:50:15;5.10;;;2.40;;
69588;SDS011;56792;50.644;17.984;2023-04-25T13:52:43;3.80;;;1.80;;
69588;SDS011;56792;50.644;17.984;2023-04-25T13:55:12;4.80;;;2.00;;
69588;SDS011;56792;50.644;17.984;2023-04-25T13:57:40;4.20;;;2.50;;
69588;SDS011;56792;50.644;17.984;2023-04-25T14:00:10;3.80;;;2.00;;
69588;SDS011;56792;50.644;17.984;2023-04-25T14:02:40;4.50;;;2.10;;
69588;SDS011;56792;50.644;17.984;2023-04-25T14:05:09;4.10;;;2.00;;
69588;SDS011;56792;50.644;17.984;2023-04-25T14:07:37;3.80;;;2.10;;
69588;SDS011;56792;50.644;17.984;2023-04-25T14:10:07;4.20;;;2.40;;
69588;SDS011;56792;50.644;17.984;2023-04-25T14:12:36;14.30;;;6.00;;
69588;SDS011;56792;50.644;17.984;2023-04-25T14:15:06;5.70;;;2.70;;
69588;SDS011;56792;50.644;17.984;2023-04-25T14:17:34;4.00;;;1.80;;
69588;SDS011;56792;50.644;17.984;2023-04-25T14:20:03;5.30;;;2.30;;
69588;SDS011;56792;50.644;17.984;2023-04-25T14:22:34;4.20;;;2.00;;
69588;SDS011;56792;50.644;17.984;2023-04-25T14:25:04;5.50;;;2.00;;
69588;SDS011;56792;50.644;17.984;2023-04-25T14:27:33;4.70;;;2.00;;
69588;SDS011;56792;50.644;17.984;2023-04-25T14:30:01;3.70;;;1.90;;
69588;SDS011;56792;50.644;17.984;2023-04-25T14:32:29;4.70;;;2.20;;
69588;SDS011;56792;50.644;17.984;2023-04-25T14:34:58;4.10;;;2.00;;
69588;SDS011;56792;50.644;17.984;2023-04-25T14:37:26;4.40;;;2.20;;
69588;SDS011;56792;50.644;17.984;2023-04-25T14:39:55;5.30;;;2.60;;
69588;SDS011;56792;50.644;17.984;2023-04-25T14:42:23;5.00;;;2.10;;
69588;SDS011;56792;50.644;17.984;2023-04-25T14:44:51;6.20;;;2.80;;
69588;SDS011;56792;50.644;17.984;2023-04-25T14:47:19;5.80;;;2.70;;
69588;SDS011;56792;50.644;17.984;2023-04-25T14:49:48;3.50;;;1.80;;
69588;SDS011;56792;50.644;17.984;2023-04-25T14:52:20;4.60;;;1.70;;
69588;SDS011;56792;50.644;17.984;2023-04-25T14:54:49;4.30;;;2.40;;
69588;SDS011;56792;50.644;17.984;2023-04-25T14:57:17;4.20;;;2.20;;
69588;SDS011;56792;50.644;17.984;2023-04-25T14:59:45;4.20;;;2.00;;